createdAt,value
2022-08-01T00:01:18.369Z,22.18
2022-08-01T00:03:45.922Z,22.17
2022-08-01T00:06:13.493Z,22.14
2022-08-01T00:08:41.310Z,22.13
2022-08-01T00:11:10.254Z,22.11
2022-08-01T00:13:37.790Z,22.08
2022-08-01T00:16:06.890Z,22.07
2022-08-01T00:18:36.566Z,22.04
2022-08-01T00:21:05.669Z,22.02
2022-08-01T00:23:33.502Z,21.99
2022-08-01T00:26:01.357Z,21.98
2022-08-01T00:28:29.104Z,21.96
2022-08-01T00:30:56.969Z,21.94
2022-08-01T00:33:24.450Z,21.93
2022-08-01T00:35:51.963Z,21.95
2022-08-01T00:38:19.756Z,21.95
2022-08-01T00:40:47.479Z,21.95
2022-08-01T00:43:16.098Z,21.95
2022-08-01T00:45:44.087Z,21.94
2022-08-01T00:48:11.771Z,21.96
2022-08-01T00:50:39.728Z,21.97
2022-08-01T00:53:08.203Z,21.98
2022-08-01T00:55:35.933Z,22.01
2022-08-01T00:58:06.015Z,22.08
2022-08-01T01:00:52.915Z,22.15
2022-08-01T01:03:49.436Z,22.18
2022-08-01T01:06:31.930Z,22.19
2022-08-01T01:09:27.006Z,22.23
2022-08-01T01:12:37.266Z,22.27
2022-08-01T01:15:11.135Z,22.26
2022-08-01T01:18:02.981Z,22.25
2022-08-01T01:20:44.317Z,22.29
2022-08-01T01:23:51.419Z,22.35
2022-08-01T01:26:49.422Z,22.37
2022-08-01T01:29:22.158Z,22.42
2022-08-01T01:31:53.253Z,22.43
2022-08-01T01:34:22.904Z,22.47
2022-08-01T01:36:53.110Z,22.52
2022-08-01T01:39:23.200Z,22.56
2022-08-01T01:41:52.540Z,22.60
2022-08-01T01:44:20.213Z,22.61
2022-08-01T01:46:50.834Z,22.65
2022-08-01T01:49:25.027Z,22.67
2022-08-01T01:52:02.670Z,22.63
2022-08-01T01:54:37.157Z,22.57
2022-08-01T01:57:07.634Z,22.54
2022-08-01T01:59:39.672Z,22.54
2022-08-01T02:02:08.959Z,22.56
2022-08-01T02:04:40.821Z,22.57
2022-08-01T02:07:13.361Z,22.58
2022-08-01T02:09:43.933Z,22.60
2022-08-01T02:12:13.625Z,22.62
2022-08-01T02:14:43.479Z,22.66
2022-08-01T02:17:16.377Z,22.71
2022-08-01T02:19:44.502Z,22.76
2022-08-01T02:22:22.531Z,22.81
2022-08-01T02:25:09.000Z,22.85
2022-08-01T02:27:52.304Z,22.81
2022-08-01T02:30:22.106Z,22.78
2022-08-01T02:33:15.611Z,22.80
2022-08-01T02:36:30.375Z,22.86
2022-08-01T02:38:44.486Z,22.90
2022-08-01T02:41:20.097Z,22.92
2022-08-01T02:43:53.327Z,22.91
2022-08-01T02:46:40.085Z,22.90
2022-08-01T02:49:11.434Z,22.86
2022-08-01T02:51:42.104Z,22.81
2022-08-01T02:54:11.001Z,22.78
2022-08-01T02:56:41.118Z,22.82
2022-08-01T02:59:22.072Z,22.83
2022-08-01T03:01:53.043Z,22.82
2022-08-01T03:04:25.644Z,22.71
2022-08-01T03:06:58.215Z,22.66
2022-08-01T03:09:30.591Z,22.60
2022-08-01T03:12:03.852Z,22.40
2022-08-01T03:14:36.267Z,22.25
2022-08-01T03:17:06.341Z,22.19
2022-08-01T03:19:35.932Z,22.08
2022-08-01T03:22:04.678Z,22.02
2022-08-01T03:24:34.125Z,21.95
2022-08-01T03:27:03.375Z,21.77
2022-08-01T03:29:32.989Z,21.70
2022-08-01T03:32:02.558Z,21.72
2022-08-01T03:34:31.362Z,21.71
2022-08-01T03:37:30.845Z,21.75
2022-08-01T03:40:23.753Z,21.81
2022-08-01T03:42:59.224Z,21.87
2022-08-01T03:45:36.358Z,21.88
2022-08-01T03:48:11.954Z,21.86
2022-08-01T03:50:46.830Z,21.85
2022-08-01T03:53:15.444Z,21.88
2022-08-01T03:55:44.643Z,21.92
2022-08-01T03:58:14.181Z,21.94
2022-08-01T04:00:42.941Z,21.93
2022-08-01T04:03:14.535Z,21.82
2022-08-01T04:05:43.773Z,21.67
2022-08-01T04:08:11.761Z,21.60
2022-08-01T04:10:39.446Z,21.44
2022-08-01T04:13:07.142Z,21.40
2022-08-01T04:15:34.831Z,21.37
2022-08-01T04:18:02.328Z,21.30
2022-08-01T04:20:29.957Z,21.33
2022-08-01T04:22:57.637Z,21.39
2022-08-01T04:25:33.354Z,21.44
2022-08-01T04:28:06.482Z,21.45
2022-08-01T04:30:38.252Z,21.46
2022-08-01T04:33:09.107Z,21.48
2022-08-01T04:36:01.417Z,21.50
2022-08-01T04:38:29.547Z,21.55
2022-08-01T04:40:58.800Z,21.53
2022-08-01T04:43:32.817Z,21.53
2022-08-01T04:46:02.065Z,21.57
2022-08-01T04:48:32.077Z,21.67
2022-08-01T04:51:00.157Z,21.66
2022-08-01T04:53:28.866Z,21.65
2022-08-01T04:55:56.733Z,21.71
2022-08-01T04:58:24.456Z,21.78
2022-08-01T05:00:52.003Z,21.82
2022-08-01T05:03:19.844Z,21.87
2022-08-01T05:05:47.999Z,21.87
2022-08-01T05:08:15.516Z,21.91
2022-08-01T05:10:43.473Z,21.92
2022-08-01T05:13:11.985Z,21.94
2022-08-01T05:15:39.547Z,21.91
2022-08-01T05:18:08.695Z,21.79
2022-08-01T05:20:38.047Z,21.76
2022-08-01T05:23:11.006Z,21.73
2022-08-01T05:25:58.981Z,21.72
2022-08-01T05:28:26.654Z,21.75
2022-08-01T05:30:56.087Z,21.83
2022-08-01T05:33:24.182Z,21.91
2022-08-01T05:35:52.103Z,21.95
2022-08-01T05:38:19.618Z,21.99
2022-08-01T05:40:47.518Z,22.03
2022-08-01T05:43:15.058Z,22.09
2022-08-01T05:45:42.734Z,22.05
2022-08-01T05:48:10.507Z,22.10
2022-08-01T05:50:38.101Z,22.14
2022-08-01T05:53:05.581Z,22.21
2022-08-01T05:55:33.281Z,22.26
2022-08-01T05:58:00.783Z,22.33
2022-08-01T06:00:28.449Z,22.37
2022-08-01T06:02:56.172Z,22.48
2022-08-01T06:05:23.758Z,22.55
2022-08-01T06:07:51.253Z,22.51
2022-08-01T06:10:19.027Z,22.58
2022-08-01T06:12:46.546Z,22.71
2022-08-01T06:15:14.350Z,22.78
2022-08-01T06:17:42.386Z,22.88
2022-08-01T06:20:11.039Z,22.97
2022-08-01T06:22:38.743Z,23.08
2022-08-01T06:25:07.963Z,23.19
2022-08-01T06:27:36.626Z,23.32
2022-08-01T06:30:08.649Z,23.33
2022-08-01T06:32:36.343Z,23.38
2022-08-01T06:35:04.584Z,23.46
2022-08-01T06:37:33.437Z,23.48
2022-08-01T06:40:16.653Z,23.48
2022-08-01T06:42:46.782Z,23.51
2022-08-01T06:45:16.648Z,23.60
2022-08-01T06:47:50.634Z,23.64
2022-08-01T06:50:19.178Z,23.63
2022-08-01T06:52:47.056Z,23.63
2022-08-01T06:55:15.184Z,23.66
2022-08-01T06:57:53.853Z,23.71
2022-08-01T07:00:24.487Z,23.77
2022-08-01T07:02:55.098Z,23.83
2022-08-01T07:05:23.681Z,23.94
2022-08-01T07:07:51.823Z,23.92
2022-08-01T07:10:20.155Z,23.89
2022-08-01T07:12:47.626Z,23.90
2022-08-01T07:15:15.283Z,23.84
2022-08-01T07:17:43.858Z,23.85
2022-08-01T07:20:16.418Z,23.83
2022-08-01T07:22:45.396Z,23.88
2022-08-01T07:25:15.715Z,24.00
2022-08-01T07:27:43.264Z,24.11
2022-08-01T07:30:11.628Z,24.17
2022-08-01T07:32:39.118Z,24.23
2022-08-01T07:35:07.333Z,24.21
2022-08-01T07:37:48.652Z,24.20
2022-08-01T07:40:19.155Z,24.21
2022-08-01T07:42:48.299Z,24.25
2022-08-01T07:45:16.315Z,24.26
2022-08-01T07:47:44.584Z,24.23
2022-08-01T07:50:13.833Z,24.23
2022-08-01T07:52:41.467Z,24.25
2022-08-01T07:55:10.442Z,24.30
2022-08-01T07:57:39.161Z,24.36
2022-08-01T08:00:09.641Z,24.39
2022-08-01T08:02:37.187Z,24.42
2022-08-01T08:05:05.790Z,24.49
2022-08-01T08:07:34.013Z,24.51
2022-08-01T08:10:01.606Z,24.57
2022-08-01T08:12:29.907Z,24.61
2022-08-01T08:14:59.476Z,24.70
2022-08-01T08:17:27.475Z,24.78
2022-08-01T08:19:55.455Z,24.90
2022-08-01T08:22:22.972Z,24.92
2022-08-01T08:24:50.511Z,24.96
2022-08-01T08:27:19.335Z,25.06
2022-08-01T08:29:46.984Z,25.13
2022-08-01T08:32:14.554Z,25.22
2022-08-01T08:34:42.406Z,25.26
2022-08-01T08:37:10.823Z,25.35
2022-08-01T08:39:42.117Z,25.43
2022-08-01T08:42:12.746Z,25.53
2022-08-01T08:44:43.991Z,25.59
2022-08-01T08:47:19.724Z,25.60
2022-08-01T08:49:50.759Z,25.54
2022-08-01T08:52:21.785Z,25.58
2022-08-01T08:54:51.734Z,25.60
2022-08-01T08:57:21.898Z,25.65
2022-08-01T08:59:52.746Z,25.72
2022-08-01T09:02:20.961Z,25.73
2022-08-01T09:04:51.202Z,25.71
2022-08-01T09:07:18.888Z,25.75
2022-08-01T09:09:49.295Z,25.86
2022-08-01T09:12:20.103Z,25.99
2022-08-01T09:14:50.725Z,25.99
2022-08-01T09:17:18.330Z,26.05
2022-08-01T09:19:54.818Z,26.12
2022-08-01T09:22:25.611Z,26.27
2022-08-01T09:25:03.518Z,26.38
2022-08-01T09:27:32.884Z,26.42
2022-08-01T09:30:23.447Z,26.51
2022-08-01T09:33:11.086Z,26.61
2022-08-01T09:35:54.680Z,26.72
2022-08-01T09:38:25.106Z,26.84
2022-08-01T09:41:02.072Z,26.92
2022-08-01T09:43:32.777Z,27.04
2022-08-01T09:46:06.039Z,27.04
2022-08-01T09:48:33.895Z,27.08
2022-08-01T09:51:07.115Z,27.14
2022-08-01T09:53:51.083Z,27.11
2022-08-01T09:56:22.196Z,27.17
2022-08-01T09:59:01.628Z,27.22
2022-08-01T10:01:45.228Z,27.22
2022-08-01T10:04:21.474Z,27.21
2022-08-01T10:06:55.578Z,27.29
2022-08-01T10:09:40.045Z,27.40
2022-08-01T10:12:15.541Z,27.48
2022-08-01T10:14:46.849Z,27.57
2022-08-01T10:17:22.578Z,27.62
2022-08-01T10:19:51.642Z,27.71
2022-08-01T10:22:21.013Z,27.80
2022-08-01T10:24:51.123Z,27.88
2022-08-01T10:27:24.313Z,27.85
2022-08-01T10:30:16.814Z,27.84
2022-08-01T10:32:53.144Z,27.87
2022-08-01T10:35:45.818Z,27.84
2022-08-01T10:38:13.726Z,27.86
2022-08-01T10:40:44.133Z,27.89
2022-08-01T10:43:13.954Z,27.93
2022-08-01T10:45:51.898Z,28.02
2022-08-01T10:48:26.427Z,27.87
2022-08-01T10:51:01.500Z,27.87
2022-08-01T10:53:31.637Z,27.85
2022-08-01T10:56:13.086Z,27.88
2022-08-01T10:58:45.001Z,27.97
2022-08-01T11:01:31.424Z,28.07
2022-08-01T11:04:05.287Z,28.17
2022-08-01T11:06:35.885Z,28.27
2022-08-01T11:09:37.472Z,28.31
2022-08-01T11:12:23.307Z,28.33
2022-08-01T11:15:02.795Z,28.36
2022-08-01T11:17:42.564Z,28.47
2022-08-01T11:20:16.305Z,28.58
2022-08-01T11:23:05.075Z,28.59
2022-08-01T11:26:03.890Z,28.66
2022-08-01T11:28:35.733Z,28.75
2022-08-01T11:31:13.735Z,28.85
2022-08-01T11:33:41.717Z,28.84
2022-08-01T11:36:12.940Z,28.89
2022-08-01T11:38:45.011Z,28.99
2022-08-01T11:41:38.248Z,28.99
2022-08-01T11:44:18.876Z,29.08
2022-08-01T11:47:09.272Z,29.19
2022-08-01T11:49:38.674Z,29.26
2022-08-01T11:52:12.536Z,29.33
2022-08-01T11:54:49.274Z,29.43
2022-08-01T11:57:23.207Z,29.41
2022-08-01T12:00:03.492Z,29.38
2022-08-01T12:02:41.611Z,29.36
2022-08-01T12:05:15.642Z,29.39
2022-08-01T12:07:46.935Z,29.43
2022-08-01T12:10:18.494Z,29.39
2022-08-01T12:12:52.379Z,29.18
2022-08-01T12:15:23.683Z,29.18
2022-08-01T12:17:59.581Z,29.29
2022-08-01T12:20:38.212Z,29.44
2022-08-01T12:23:10.964Z,29.62
2022-08-01T12:25:44.905Z,29.69
2022-08-01T12:28:16.270Z,29.79
2022-08-01T12:30:43.822Z,29.75
2022-08-01T12:33:17.758Z,29.80
2022-08-01T12:35:45.720Z,29.89
2022-08-01T12:38:17.434Z,30.01
2022-08-01T12:40:51.482Z,30.07
2022-08-01T12:43:28.298Z,30.00
2022-08-01T12:46:00.542Z,29.95
2022-08-01T12:48:32.100Z,29.97
2022-08-01T12:51:03.516Z,30.08
2022-08-01T12:53:40.396Z,30.22
2022-08-01T12:56:13.958Z,30.32
2022-08-01T12:58:41.845Z,30.45
2022-08-01T13:01:12.456Z,30.53
2022-08-01T13:03:41.019Z,30.61
2022-08-01T13:06:16.236Z,30.69
2022-08-01T13:08:45.372Z,30.83
2022-08-01T13:11:17.376Z,30.97
2022-08-01T13:13:52.267Z,31.03
2022-08-01T13:16:43.280Z,31.22
2022-08-01T13:19:14.881Z,31.17
2022-08-01T13:21:58.616Z,30.86
2022-08-01T13:24:30.667Z,30.71
2022-08-01T13:27:05.306Z,30.62
2022-08-01T13:29:41.007Z,30.67
2022-08-01T13:32:30.103Z,30.85
2022-08-01T13:35:09.515Z,30.99
2022-08-01T13:37:39.431Z,31.08
2022-08-01T13:40:09.604Z,31.06
2022-08-01T13:42:38.331Z,31.05
2022-08-01T13:45:14.151Z,31.08
2022-08-01T13:48:12.136Z,31.16
2022-08-01T13:50:34.001Z,31.00
2022-08-01T13:53:01.534Z,30.89
2022-08-01T13:55:34.700Z,30.78
2022-08-01T13:58:03.876Z,30.81
2022-08-01T14:00:31.734Z,30.97
2022-08-01T14:02:59.244Z,31.11
2022-08-01T14:05:27.239Z,31.26
2022-08-01T14:07:56.326Z,31.41
2022-08-01T14:10:25.712Z,31.55
2022-08-01T14:12:56.851Z,31.68
2022-08-01T14:15:38.836Z,31.72
2022-08-01T14:18:10.565Z,31.75
2022-08-01T14:20:41.057Z,31.84
2022-08-01T14:23:09.952Z,31.91
2022-08-01T14:26:01.668Z,31.95
2022-08-01T14:28:31.152Z,32.06
2022-08-01T14:30:59.553Z,32.25
2022-08-01T14:33:28.028Z,32.49
2022-08-01T14:36:06.134Z,32.56
2022-08-01T14:38:46.202Z,32.58
2022-08-01T14:41:15.965Z,32.65
2022-08-01T14:43:44.120Z,32.76
2022-08-01T14:46:13.421Z,32.82
2022-08-01T14:48:41.741Z,32.92
2022-08-01T14:51:09.865Z,32.92
2022-08-01T14:53:38.529Z,32.98
2022-08-01T14:56:08.087Z,33.02
2022-08-01T14:58:35.598Z,33.08
2022-08-01T15:01:03.466Z,33.16
2022-08-01T15:03:32.738Z,33.25
2022-08-01T15:06:00.573Z,33.24
2022-08-01T15:08:28.167Z,33.17
2022-08-01T15:10:55.906Z,33.21
2022-08-01T15:13:23.435Z,33.20
2022-08-01T15:15:50.901Z,32.98
2022-08-01T15:18:18.683Z,32.92
2022-08-01T15:20:46.523Z,32.98
2022-08-01T15:23:14.626Z,33.01
2022-08-01T15:25:42.512Z,33.12
2022-08-01T15:28:13.274Z,33.19
2022-08-01T15:30:41.513Z,33.25
2022-08-01T15:33:09.298Z,33.17
2022-08-01T15:35:36.869Z,32.98
2022-08-01T15:38:04.370Z,32.92
2022-08-01T15:40:35.419Z,32.99
2022-08-01T15:43:03.652Z,33.05
2022-08-01T15:45:47.444Z,33.07
2022-08-01T15:48:17.826Z,32.97
2022-08-01T15:50:46.009Z,32.72
2022-08-01T15:53:13.534Z,32.67
2022-08-01T15:55:41.636Z,32.73
2022-08-01T15:58:14.190Z,32.85
2022-08-01T16:00:42.020Z,33.10
2022-08-01T16:03:10.512Z,33.20
2022-08-01T16:05:43.416Z,33.20
2022-08-01T16:08:13.448Z,33.05
2022-08-01T16:10:41.409Z,32.98
2022-08-01T16:13:09.805Z,32.91
2022-08-01T16:15:39.069Z,32.94
2022-08-01T16:18:10.742Z,32.99
2022-08-01T16:20:44.573Z,33.05
2022-08-01T16:23:15.055Z,32.89
2022-08-01T16:25:44.683Z,32.68
2022-08-01T16:28:14.254Z,32.49
2022-08-01T16:30:48.961Z,32.25
2022-08-01T16:33:42.872Z,31.94
2022-08-01T16:36:18.775Z,31.57
2022-08-01T16:38:47.125Z,31.31
2022-08-01T16:41:19.104Z,31.08
2022-08-01T16:43:53.422Z,30.85
2022-08-01T16:46:25.606Z,30.69
2022-08-01T16:48:54.691Z,30.54
2022-08-01T16:51:22.424Z,30.42
2022-08-01T16:53:50.274Z,30.28
2022-08-01T16:56:18.128Z,30.17
2022-08-01T16:58:46.008Z,29.99
2022-08-01T17:01:59.225Z,29.83
2022-08-01T17:04:02.052Z,29.71
2022-08-01T17:06:30.788Z,29.65
2022-08-01T17:08:58.557Z,29.63
2022-08-01T17:11:26.598Z,29.61
2022-08-01T17:13:54.132Z,29.58
2022-08-01T17:16:22.136Z,29.56
2022-08-01T17:18:49.824Z,29.56
2022-08-01T17:21:18.124Z,29.55
2022-08-01T17:23:45.651Z,29.51
2022-08-01T17:26:13.630Z,29.49
2022-08-01T17:28:41.323Z,29.44
2022-08-01T17:31:10.404Z,29.39
2022-08-01T17:33:46.201Z,29.35
2022-08-01T17:36:21.255Z,29.32
2022-08-01T17:38:49.473Z,29.27
2022-08-01T17:41:16.991Z,29.24
2022-08-01T17:43:44.523Z,29.23
2022-08-01T17:46:12.423Z,29.22
2022-08-01T17:48:40.135Z,29.19
2022-08-01T17:51:07.800Z,29.16
2022-08-01T17:53:35.577Z,29.07
2022-08-01T17:56:09.157Z,29.00
2022-08-01T17:58:51.813Z,28.96
2022-08-01T18:01:20.118Z,28.91
2022-08-01T18:03:48.919Z,28.83
2022-08-01T18:06:19.363Z,28.76
2022-08-01T18:08:48.003Z,28.75
2022-08-01T18:11:17.083Z,28.72
2022-08-01T18:13:45.108Z,28.68
2022-08-01T18:16:13.523Z,28.64
2022-08-01T18:18:42.469Z,28.52
2022-08-01T18:21:12.176Z,28.43
2022-08-01T18:23:40.079Z,28.34
2022-08-01T18:26:12.029Z,28.28
2022-08-01T18:28:46.653Z,28.23
2022-08-01T18:31:17.311Z,28.21
2022-08-01T18:33:45.413Z,28.19
2022-08-01T18:36:23.164Z,28.16
2022-08-01T18:39:06.267Z,28.15
2022-08-01T18:41:39.415Z,28.12
2022-08-01T18:44:08.790Z,28.09
2022-08-01T18:46:40.749Z,28.05
2022-08-01T18:49:12.036Z,27.99
2022-08-01T18:51:44.599Z,27.91
2022-08-01T18:54:15.087Z,27.85
2022-08-01T18:56:44.179Z,27.77
2022-08-01T18:59:12.426Z,27.69
2022-08-01T19:01:40.565Z,27.60
2022-08-01T19:04:08.811Z,27.50
2022-08-01T19:06:37.930Z,27.39
2022-08-01T19:09:06.297Z,27.31
2022-08-01T19:11:34.806Z,27.22
2022-08-01T19:14:03.295Z,27.14
2022-08-01T19:16:31.317Z,27.06
2022-08-01T19:18:58.880Z,26.95
2022-08-01T19:21:26.509Z,26.90
2022-08-01T19:24:13.135Z,26.83
2022-08-01T19:26:45.676Z,26.78
2022-08-01T19:29:21.803Z,26.73
2022-08-01T19:31:51.274Z,26.69
2022-08-01T19:34:26.555Z,26.63
2022-08-01T19:36:58.511Z,26.58
2022-08-01T19:39:27.813Z,26.54
2022-08-01T19:41:57.880Z,26.49
2022-08-01T19:44:28.921Z,26.46
2022-08-01T19:46:57.302Z,26.42
2022-08-01T19:49:24.938Z,26.40
2022-08-01T19:52:01.273Z,26.37
2022-08-01T19:54:45.523Z,26.32
2022-08-01T19:57:15.898Z,26.27
2022-08-01T19:59:46.638Z,26.23
2022-08-01T20:02:20.093Z,26.17
2022-08-01T20:04:48.874Z,26.10
2022-08-01T20:07:16.488Z,26.05
2022-08-01T20:09:48.286Z,25.99
2022-08-01T20:12:20.102Z,25.94
2022-08-01T20:14:51.726Z,25.89
2022-08-01T20:17:21.808Z,25.84
2022-08-01T20:19:50.986Z,25.79
2022-08-01T20:22:21.373Z,25.74
2022-08-01T20:24:57.707Z,25.70
2022-08-01T20:27:27.526Z,25.65
2022-08-01T20:30:00.315Z,25.62
2022-08-01T20:32:37.383Z,25.60
2022-08-01T20:35:06.545Z,25.57
2022-08-01T20:38:03.718Z,25.57
2022-08-01T20:40:30.377Z,25.53
2022-08-01T20:42:59.206Z,25.53
2022-08-01T20:45:27.615Z,25.51
2022-08-01T20:47:58.058Z,25.50
2022-08-01T20:50:53.794Z,25.47
2022-08-01T20:53:24.389Z,25.45
2022-08-01T20:56:06.577Z,25.44
2022-08-01T20:59:09.763Z,25.39
2022-08-01T21:01:49.809Z,25.37
2022-08-01T21:04:48.581Z,25.35
2022-08-01T21:07:33.100Z,25.31
2022-08-01T21:10:09.641Z,25.26
2022-08-01T21:13:06.577Z,25.25
2022-08-01T21:16:22.139Z,25.24
2022-08-01T21:19:16.784Z,25.25
2022-08-01T21:21:40.130Z,25.29
2022-08-01T21:24:18.433Z,25.32
2022-08-01T21:26:46.938Z,25.34
2022-08-01T21:29:15.394Z,25.35
2022-08-01T21:31:46.201Z,25.36
2022-08-01T21:34:16.016Z,25.38
2022-08-01T21:36:45.709Z,25.38
2022-08-01T21:39:13.589Z,25.41
2022-08-01T21:42:03.258Z,25.42
2022-08-01T21:44:32.995Z,25.47
2022-08-01T21:47:01.121Z,25.55
2022-08-01T21:49:28.730Z,25.61
2022-08-01T21:52:18.113Z,25.66
2022-08-01T21:55:16.573Z,25.71
2022-08-01T21:58:23.996Z,25.73
2022-08-01T22:01:01.562Z,25.70
2022-08-01T22:03:48.737Z,25.70
2022-08-01T22:06:21.039Z,25.67
2022-08-01T22:08:56.473Z,25.66
2022-08-01T22:11:30.864Z,25.66
2022-08-01T22:14:11.915Z,25.65
2022-08-01T22:16:41.594Z,25.65
2022-08-01T22:19:09.825Z,25.66
2022-08-01T22:21:57.750Z,25.67
2022-08-01T22:24:26.064Z,25.66
2022-08-01T22:26:55.609Z,25.65
2022-08-01T22:29:23.826Z,25.64
2022-08-01T22:31:56.824Z,25.63
2022-08-01T22:34:26.685Z,25.62
2022-08-01T22:36:56.082Z,25.62
2022-08-01T22:39:25.890Z,25.60
2022-08-01T22:42:01.793Z,25.58
2022-08-01T22:45:30.883Z,25.56
2022-08-01T22:48:24.935Z,25.53
2022-08-01T22:51:04.023Z,25.49
2022-08-01T22:53:47.276Z,25.47
2022-08-01T22:56:15.088Z,25.46
2022-08-01T22:58:44.696Z,25.46
2022-08-01T23:01:21.878Z,25.43
2022-08-01T23:03:56.582Z,25.39
2022-08-01T23:06:42.055Z,25.32
2022-08-01T23:09:10.520Z,25.26
2022-08-01T23:11:39.513Z,25.19
2022-08-01T23:14:07.312Z,25.12
2022-08-01T23:16:36.914Z,25.04
2022-08-01T23:19:04.560Z,24.99
2022-08-01T23:21:33.232Z,24.96
2022-08-01T23:24:03.065Z,24.90
2022-08-01T23:26:32.244Z,24.87
2022-08-01T23:29:00.669Z,24.81
2022-08-01T23:32:00.420Z,24.77
2022-08-01T23:34:20.024Z,24.71
2022-08-01T23:36:48.006Z,24.68
2022-08-01T23:39:15.621Z,24.64
2022-08-01T23:41:57.366Z,24.61
2022-08-01T23:44:30.976Z,24.56
2022-08-01T23:46:58.618Z,24.52
2022-08-01T23:49:26.336Z,24.45
2022-08-01T23:51:54.259Z,24.41
2022-08-01T23:54:22.008Z,24.38
2022-08-01T23:56:52.065Z,24.35
2022-08-01T23:59:20.383Z,24.30
